sensor_id;sensor_type;location;lat;lon;timestamp;pressure;altitude;pressure_sealevel;temperature;humidity
55347;BME280;41218;55.700;38.270;2023-08-31T00:04:59;99842.78;;;13.08;68.35
55347;BME280;41218;55.700;38.270;2023-08-31T00:10:00;99845.56;;;13.08;68.53
55347;BME280;41218;55.700;38.270;2023-08-31T00:15:06;99846.34;;;13.05;68.32
55347;BME280;41218;55.700;38.270;2023-08-31T00:20:09;99835.56;;;12.96;68.45
55347;BME280;41218;55.700;38.270;2023-08-31T00:25:13;99839.19;;;13.00;68.36
55347;BME280;41218;55.700;38.270;2023-08-31T00:30:13;99833.13;;;12.91;68.06
55347;BME280;41218;55.700;38.270;2023-08-31T00:35:15;99839.84;;;12.86;68.21
55347;BME280;41218;55.700;38.270;2023-08-31T00:40:16;99820.41;;;12.82;68.58
55347;BME280;41218;55.700;38.270;2023-08-31T00:45:17;99841.78;;;12.82;68.31
55347;BME280;41218;55.700;38.270;2023-08-31T00:50:18;99854.59;;;12.94;68.53
55347;BME280;41218;55.700;38.270;2023-08-31T00:55:19;99858.03;;;12.80;68.17
55347;BME280;41218;55.700;38.270;2023-08-31T01:00:20;99859.94;;;12.72;68.37
55347;BME280;41218;55.700;38.270;2023-08-31T01:10:41;99855.59;;;12.75;68.65
55347;BME280;41218;55.700;38.270;2023-08-31T01:15:46;99842.00;;;12.62;68.56
55347;BME280;41218;55.700;38.270;2023-08-31T01:25:57;99835.59;;;12.55;68.45
55347;BME280;41218;55.700;38.270;2023-08-31T01:31:03;99835.16;;;12.53;69.00
55347;BME280;41218;55.700;38.270;2023-08-31T01:36:11;99828.78;;;12.49;68.91
55347;BME280;41218;55.700;38.270;2023-08-31T01:41:17;99853.41;;;12.54;69.26
55347;BME280;41218;55.700;38.270;2023-08-31T01:46:19;99859.28;;;12.49;68.96
55347;BME280;41218;55.700;38.270;2023-08-31T01:51:20;99870.34;;;12.45;68.93
55347;BME280;41218;55.700;38.270;2023-08-31T01:56:20;99862.03;;;12.45;68.96
55347;BME280;41218;55.700;38.270;2023-08-31T02:01:22;99850.41;;;12.32;69.11
55347;BME280;41218;55.700;38.270;2023-08-31T02:06:23;99864.81;;;12.45;69.11
55347;BME280;41218;55.700;38.270;2023-08-31T02:11:23;99852.47;;;12.39;68.91
55347;BME280;41218;55.700;38.270;2023-08-31T02:16:24;99856.78;;;12.36;68.95
55347;BME280;41218;55.700;38.270;2023-08-31T02:21:25;99862.75;;;12.38;69.08
55347;BME280;41218;55.700;38.270;2023-08-31T02:26:26;99854.84;;;12.37;68.97
55347;BME280;41218;55.700;38.270;2023-08-31T02:31:26;99832.47;;;12.19;68.86
55347;BME280;41218;55.700;38.270;2023-08-31T02:36:27;99861.91;;;12.34;68.89
55347;BME280;41218;55.700;38.270;2023-08-31T02:41:27;99836.81;;;12.20;68.92
55347;BME280;41218;55.700;38.270;2023-08-31T02:46:28;99829.22;;;12.13;68.87
55347;BME280;41218;55.700;38.270;2023-08-31T02:51:29;99845.13;;;12.20;68.96
55347;BME280;41218;55.700;38.270;2023-08-31T02:56:32;99846.25;;;12.15;68.96
55347;BME280;41218;55.700;38.270;2023-08-31T03:01:33;99839.47;;;12.09;68.87
55347;BME280;41218;55.700;38.270;2023-08-31T03:06:34;99853.78;;;12.15;68.92
55347;BME280;41218;55.700;38.270;2023-08-31T03:11:35;99853.44;;;12.20;68.68
55347;BME280;41218;55.700;38.270;2023-08-31T03:16:35;99835.56;;;12.14;69.00
55347;BME280;41218;55.700;38.270;2023-08-31T03:21:36;99845.50;;;12.18;69.20
55347;BME280;41218;55.700;38.270;2023-08-31T03:26:37;99847.84;;;12.16;68.95
55347;BME280;41218;55.700;38.270;2023-08-31T03:31:37;99850.63;;;12.16;69.18
55347;BME280;41218;55.700;38.270;2023-08-31T03:36:38;99858.97;;;12.20;69.13
55347;BME280;41218;55.700;38.270;2023-08-31T03:41:39;99863.31;;;12.17;69.41
55347;BME280;41218;55.700;38.270;2023-08-31T03:46:39;99845.78;;;12.10;69.57
55347;BME280;41218;55.700;38.270;2023-08-31T03:51:40;99867.25;;;12.16;69.66
55347;BME280;41218;55.700;38.270;2023-08-31T03:56:43;99884.75;;;12.24;69.77
55347;BME280;41218;55.700;38.270;2023-08-31T04:01:44;99848.94;;;12.08;69.87
55347;BME280;41218;55.700;38.270;2023-08-31T04:06:45;99864.63;;;12.27;70.30
55347;BME280;41218;55.700;38.270;2023-08-31T04:11:46;99849.16;;;12.26;70.64
55347;BME280;41218;55.700;38.270;2023-08-31T04:16:46;99840.41;;;12.24;70.47
55347;BME280;41218;55.700;38.270;2023-08-31T04:21:50;99856.09;;;12.43;71.10
55347;BME280;41218;55.700;38.270;2023-08-31T04:26:51;99854.16;;;12.51;71.56
55347;BME280;41218;55.700;38.270;2023-08-31T04:31:51;99856.66;;;12.63;72.06
55347;BME280;41218;55.700;38.270;2023-08-31T04:36:52;99871.84;;;12.76;72.51
55347;BME280;41218;55.700;38.270;2023-08-31T04:41:52;99886.31;;;12.96;72.46
55347;BME280;41218;55.700;38.270;2023-08-31T04:46:53;99891.22;;;13.14;72.71
55347;BME280;41218;55.700;38.270;2023-08-31T04:51:56;99889.00;;;13.30;73.14
55347;BME280;41218;55.700;38.270;2023-08-31T04:56:56;99906.59;;;13.49;73.64
55347;BME280;41218;55.700;38.270;2023-08-31T05:01:57;99880.78;;;13.45;73.51
55347;BME280;41218;55.700;38.270;2023-08-31T05:06:58;99905.16;;;13.76;73.58
55347;BME280;41218;55.700;38.270;2023-08-31T05:11:58;99892.94;;;13.88;73.63
55347;BME280;41218;55.700;38.270;2023-08-31T05:16:59;99916.09;;;14.21;73.43
55347;BME280;41218;55.700;38.270;2023-08-31T05:22:01;99914.63;;;14.45;73.67
55347;BME280;41218;55.700;38.270;2023-08-31T05:27:01;99927.81;;;14.70;74.43
55347;BME280;41218;55.700;38.270;2023-08-31T05:32:03;99895.66;;;14.79;73.22
55347;BME280;41218;55.700;38.270;2023-08-31T05:37:04;99898.84;;;14.96;73.05
55347;BME280;41218;55.700;38.270;2023-08-31T05:42:07;99900.47;;;15.18;73.38
55347;BME280;41218;55.700;38.270;2023-08-31T05:47:08;99890.91;;;15.30;73.32
55347;BME280;41218;55.700;38.270;2023-08-31T05:52:08;99886.53;;;15.47;73.11
55347;BME280;41218;55.700;38.270;2023-08-31T05:57:09;99898.84;;;15.75;72.66
55347;BME280;41218;55.700;38.270;2023-08-31T06:02:09;99903.59;;;15.85;72.31
55347;BME280;41218;55.700;38.270;2023-08-31T06:07:10;99906.34;;;15.99;71.99
55347;BME280;41218;55.700;38.270;2023-08-31T06:12:10;99914.25;;;16.22;72.24
55347;BME280;41218;55.700;38.270;2023-08-31T06:17:11;99907.44;;;16.27;71.43
55347;BME280;41218;55.700;38.270;2023-08-31T06:22:13;99906.16;;;16.46;70.97
55347;BME280;41218;55.700;38.270;2023-08-31T06:27:13;99910.84;;;16.67;70.84
55347;BME280;41218;55.700;38.270;2023-08-31T06:32:16;99902.06;;;16.69;70.35
55347;BME280;41218;55.700;38.270;2023-08-31T06:37:17;99891.63;;;16.76;70.25
55347;BME280;41218;55.700;38.270;2023-08-31T06:42:18;99916.19;;;17.07;70.10
55347;BME280;41218;55.700;38.270;2023-08-31T06:47:18;99908.56;;;17.11;69.61
55347;BME280;41218;55.700;38.270;2023-08-31T06:52:18;99932.69;;;17.39;69.47
55347;BME280;41218;55.700;38.270;2023-08-31T06:57:19;99929.09;;;17.38;69.13
55347;BME280;41218;55.700;38.270;2023-08-31T07:02:19;99943.59;;;17.68;68.99
55347;BME280;41218;55.700;38.270;2023-08-31T07:07:22;99942.72;;;17.78;68.58
55347;BME280;41218;55.700;38.270;2023-08-31T07:12:22;99950.13;;;17.99;68.43
55347;BME280;41218;55.700;38.270;2023-08-31T07:17:23;99958.06;;;18.04;67.99
55347;BME280;41218;55.700;38.270;2023-08-31T07:22:23;99953.03;;;18.26;68.08
55347;BME280;41218;55.700;38.270;2023-08-31T07:27:24;99945.34;;;18.34;67.51
55347;BME280;41218;55.700;38.270;2023-08-31T07:32:24;99930.47;;;18.40;67.51
55347;BME280;41218;55.700;38.270;2023-08-31T07:37:25;99924.69;;;18.55;67.24
55347;BME280;41218;55.700;38.270;2023-08-31T07:42:25;99935.03;;;18.89;66.90
55347;BME280;41218;55.700;38.270;2023-08-31T07:47:26;99925.69;;;18.99;66.73
55347;BME280;41218;55.700;38.270;2023-08-31T07:52:27;99930.28;;;19.13;66.35
55347;BME280;41218;55.700;38.270;2023-08-31T07:57:27;99932.69;;;19.38;66.06
55347;BME280;41218;55.700;38.270;2023-08-31T08:02:28;99925.72;;;19.46;65.85
55347;BME280;41218;55.700;38.270;2023-08-31T08:07:28;99915.44;;;19.63;65.19
55347;BME280;41218;55.700;38.270;2023-08-31T08:12:37;99930.00;;;19.78;64.73
55347;BME280;41218;55.700;38.270;2023-08-31T08:17:38;99914.69;;;19.83;65.09
55347;BME280;41218;55.700;38.270;2023-08-31T08:22:39;99941.56;;;20.04;64.50
55347;BME280;41218;55.700;38.270;2023-08-31T08:27:40;99919.41;;;20.09;64.55
55347;BME280;41218;55.700;38.270;2023-08-31T08:32:41;99918.06;;;20.17;64.33
55347;BME280;41218;55.700;38.270;2023-08-31T08:37:42;99908.53;;;20.31;63.79
55347;BME280;41218;55.700;38.270;2023-08-31T08:42:43;99903.50;;;20.42;63.42
55347;BME280;41218;55.700;38.270;2023-08-31T08:47:47;99909.19;;;20.59;63.37
55347;BME280;41218;55.700;38.270;2023-08-31T08:52:47;99903.66;;;20.72;62.65
55347;BME280;41218;55.700;38.270;2023-08-31T08:57:48;99898.34;;;20.77;62.30
55347;BME280;41218;55.700;38.270;2023-08-31T09:02:48;99918.91;;;20.91;61.81
55347;BME280;41218;55.700;38.270;2023-08-31T09:08:09;99899.50;;;20.96;61.14
55347;BME280;41218;55.700;38.270;2023-08-31T09:13:14;99900.66;;;20.99;61.30
55347;BME280;41218;55.700;38.270;2023-08-31T09:18:29;99911.91;;;21.15;60.65
55347;BME280;41218;55.700;38.270;2023-08-31T09:23:32;99911.47;;;21.17;60.93
55347;BME280;41218;55.700;38.270;2023-08-31T09:28:33;99903.63;;;21.25;60.67
55347;BME280;41218;55.700;38.270;2023-08-31T09:33:38;99904.34;;;21.29;60.80
55347;BME280;41218;55.700;38.270;2023-08-31T09:38:42;99913.38;;;21.36;59.55
55347;BME280;41218;55.700;38.270;2023-08-31T09:43:43;99897.16;;;21.44;59.50
55347;BME280;41218;55.700;38.270;2023-08-31T09:48:44;99912.53;;;21.56;59.20
55347;BME280;41218;55.700;38.270;2023-08-31T09:53:46;99915.94;;;21.64;58.99
55347;BME280;41218;55.700;38.270;2023-08-31T09:58:47;99914.88;;;21.74;59.14
55347;BME280;41218;55.700;38.270;2023-08-31T10:03:49;99918.38;;;21.78;58.94
55347;BME280;41218;55.700;38.270;2023-08-31T10:08:50;99918.97;;;21.86;58.45
55347;BME280;41218;55.700;38.270;2023-08-31T10:13:52;99909.72;;;21.85;58.13
55347;BME280;41218;55.700;38.270;2023-08-31T10:18:57;99898.28;;;21.92;57.61
55347;BME280;41218;55.700;38.270;2023-08-31T10:23:58;99901.25;;;22.01;57.71
55347;BME280;41218;55.700;38.270;2023-08-31T10:28:59;99908.59;;;22.12;57.33
55347;BME280;41218;55.700;38.270;2023-08-31T10:34:01;99913.13;;;22.22;56.60
55347;BME280;41218;55.700;38.270;2023-08-31T10:39:13;99921.84;;;22.28;56.14
55347;BME280;41218;55.700;38.270;2023-08-31T10:44:19;99919.81;;;22.28;55.70
55347;BME280;41218;55.700;38.270;2023-08-31T10:49:22;99913.41;;;22.28;56.09
55347;BME280;41218;55.700;38.270;2023-08-31T10:54:33;99914.09;;;22.32;55.30
55347;BME280;41218;55.700;38.270;2023-08-31T10:59:47;99909.03;;;22.39;54.81
55347;BME280;41218;55.700;38.270;2023-08-31T11:04:57;99900.59;;;22.39;54.35
55347;BME280;41218;55.700;38.270;2023-08-31T11:10:18;99899.81;;;22.52;54.27
55347;BME280;41218;55.700;38.270;2023-08-31T11:15:21;99890.34;;;22.58;54.60
55347;BME280;41218;55.700;38.270;2023-08-31T11:20:23;99893.31;;;22.68;54.25
55347;BME280;41218;55.700;38.270;2023-08-31T11:25:30;99881.69;;;22.66;53.66
55347;BME280;41218;55.700;38.270;2023-08-31T11:30:32;99878.78;;;22.69;53.51
55347;BME280;41218;55.700;38.270;2023-08-31T11:35:35;99867.16;;;22.67;53.62
55347;BME280;41218;55.700;38.270;2023-08-31T11:40:36;99868.63;;;22.72;53.81
55347;BME280;41218;55.700;38.270;2023-08-31T11:45:37;99866.28;;;22.83;53.19
55347;BME280;41218;55.700;38.270;2023-08-31T11:50:49;99865.00;;;22.84;52.87
55347;BME280;41218;55.700;38.270;2023-08-31T11:55:53;99869.28;;;22.89;52.76
55347;BME280;41218;55.700;38.270;2023-08-31T12:00:57;99870.78;;;22.93;52.23
55347;BME280;41218;55.700;38.270;2023-08-31T12:05:59;99859.34;;;22.97;52.81
55347;BME280;41218;55.700;38.270;2023-08-31T12:11:01;99847.19;;;23.00;52.89
55347;BME280;41218;55.700;38.270;2023-08-31T12:16:02;99850.38;;;23.02;52.41
55347;BME280;41218;55.700;38.270;2023-08-31T12:21:06;99845.41;;;23.06;52.22
55347;BME280;41218;55.700;38.270;2023-08-31T12:26:06;99832.44;;;23.09;52.62
55347;BME280;41218;55.700;38.270;2023-08-31T12:31:08;99815.28;;;23.03;52.14
55347;BME280;41218;55.700;38.270;2023-08-31T12:36:09;99813.94;;;23.08;52.05
55347;BME280;41218;55.700;38.270;2023-08-31T12:41:09;99825.97;;;23.21;52.22
55347;BME280;41218;55.700;38.270;2023-08-31T12:46:10;99825.84;;;23.25;51.76
55347;BME280;41218;55.700;38.270;2023-08-31T12:51:13;99832.28;;;23.25;51.80
55347;BME280;41218;55.700;38.270;2023-08-31T12:56:14;99819.31;;;23.28;51.68
55347;BME280;41218;55.700;38.270;2023-08-31T13:01:21;99819.66;;;23.30;51.66
55347;BME280;41218;55.700;38.270;2023-08-31T13:06:23;99828.88;;;23.30;51.71
55347;BME280;41218;55.700;38.270;2023-08-31T13:11:25;99818.66;;;23.24;52.04
55347;BME280;41218;55.700;38.270;2023-08-31T13:16:26;99818.84;;;23.29;52.10
55347;BME280;41218;55.700;38.270;2023-08-31T13:21:30;99819.00;;;23.26;51.76
55347;BME280;41218;55.700;38.270;2023-08-31T13:26:30;99835.31;;;23.31;51.67
55347;BME280;41218;55.700;38.270;2023-08-31T13:31:31;99815.84;;;23.24;51.88
55347;BME280;41218;55.700;38.270;2023-08-31T13:36:32;99807.03;;;23.22;51.64
55347;BME280;41218;55.700;38.270;2023-08-31T13:41:33;99812.19;;;23.23;51.69
55347;BME280;41218;55.700;38.270;2023-08-31T13:46:33;99797.09;;;23.17;51.87
55347;BME280;41218;55.700;38.270;2023-08-31T13:51:34;99789.09;;;23.15;51.91
55347;BME280;41218;55.700;38.270;2023-08-31T13:56:35;99807.50;;;23.20;51.90
55347;BME280;41218;55.700;38.270;2023-08-31T14:01:35;99802.88;;;23.13;51.65
55347;BME280;41218;55.700;38.270;2023-08-31T14:06:37;99798.16;;;23.10;51.96
55347;BME280;41218;55.700;38.270;2023-08-31T14:11:38;99803.47;;;23.08;51.98
55347;BME280;41218;55.700;38.270;2023-08-31T14:16:38;99801.88;;;23.07;52.34
55347;BME280;41218;55.700;38.270;2023-08-31T14:21:39;99798.03;;;23.01;52.17
55347;BME280;41218;55.700;38.270;2023-08-31T14:26:40;99784.63;;;22.92;52.03
55347;BME280;41218;55.700;38.270;2023-08-31T14:31:40;99805.03;;;22.96;52.62
55347;BME280;41218;55.700;38.270;2023-08-31T14:36:41;99797.59;;;22.90;52.66
55347;BME280;41218;55.700;38.270;2023-08-31T14:41:41;99799.09;;;22.82;53.09
55347;BME280;41218;55.700;38.270;2023-08-31T14:46:42;99780.94;;;22.70;53.15
55347;BME280;41218;55.700;38.270;2023-08-31T14:51:42;99777.13;;;22.64;53.22
55347;BME280;41218;55.700;38.270;2023-08-31T14:56:44;99797.63;;;22.64;53.91
55347;BME280;41218;55.700;38.270;2023-08-31T15:01:44;99792.34;;;22.53;55.03
55347;BME280;41218;55.700;38.270;2023-08-31T15:06:46;99788.84;;;22.49;55.77
55347;BME280;41218;55.700;38.270;2023-08-31T15:11:47;99793.25;;;22.37;56.56
55347;BME280;41218;55.700;38.270;2023-08-31T15:16:48;99796.25;;;22.30;57.17
55347;BME280;41218;55.700;38.270;2023-08-31T15:21:48;99789.25;;;22.22;57.66
55347;BME280;41218;55.700;38.270;2023-08-31T15:26:49;99799.50;;;22.16;57.83
55347;BME280;41218;55.700;38.270;2023-08-31T15:31:49;99788.22;;;22.03;58.45
55347;BME280;41218;55.700;38.270;2023-08-31T15:36:50;99790.25;;;22.03;58.49
55347;BME280;41218;55.700;38.270;2023-08-31T15:41:51;99794.06;;;21.96;58.92
55347;BME280;41218;55.700;38.270;2023-08-31T15:46:51;99794.72;;;21.87;59.16
55347;BME280;41218;55.700;38.270;2023-08-31T15:51:52;99772.38;;;21.67;59.46
55347;BME280;41218;55.700;38.270;2023-08-31T15:56:52;99790.06;;;21.68;59.84
55347;BME280;41218;55.700;38.270;2023-08-31T16:01:53;99790.25;;;21.60;60.10
55347;BME280;41218;55.700;38.270;2023-08-31T16:06:53;99778.63;;;21.46;60.21
55347;BME280;41218;55.700;38.270;2023-08-31T16:11:54;99796.38;;;21.43;60.63
55347;BME280;41218;55.700;38.270;2023-08-31T16:16:55;99800.13;;;21.36;60.95
55347;BME280;41218;55.700;38.270;2023-08-31T16:21:56;99798.84;;;21.24;60.87
55347;BME280;41218;55.700;38.270;2023-08-31T16:26:56;99782.00;;;21.08;61.05
55347;BME280;41218;55.700;38.270;2023-08-31T16:31:57;99789.38;;;21.01;61.36
55347;BME280;41218;55.700;38.270;2023-08-31T16:36:58;99785.28;;;20.90;61.65
55347;BME280;41218;55.700;38.270;2023-08-31T16:41:59;99789.50;;;20.81;61.80
55347;BME280;41218;55.700;38.270;2023-08-31T16:46:59;99800.09;;;20.74;61.51
55347;BME280;41218;55.700;38.270;2023-08-31T16:52:00;99804.31;;;20.66;61.91
55347;BME280;41218;55.700;38.270;2023-08-31T16:57:01;99798.56;;;20.53;62.01
55347;BME280;41218;55.700;38.270;2023-08-31T17:02:01;99788.81;;;20.41;61.86
55347;BME280;41218;55.700;38.270;2023-08-31T17:07:02;99796.59;;;20.33;62.19
55347;BME280;41218;55.700;38.270;2023-08-31T17:12:03;99801.34;;;20.20;62.79
55347;BME280;41218;55.700;38.270;2023-08-31T17:17:04;99786.38;;;20.07;62.42
55347;BME280;41218;55.700;38.270;2023-08-31T17:22:04;99792.22;;;19.96;62.83
55347;BME280;41218;55.700;38.270;2023-08-31T17:27:05;99787.22;;;19.87;62.59
55347;BME280;41218;55.700;38.270;2023-08-31T17:32:06;99795.69;;;19.84;62.68
55347;BME280;41218;55.700;38.270;2023-08-31T17:37:06;99779.13;;;19.69;62.68
55347;BME280;41218;55.700;38.270;2023-08-31T17:42:07;99784.44;;;19.64;62.97
55347;BME280;41218;55.700;38.270;2023-08-31T17:47:07;99792.13;;;19.59;63.03
55347;BME280;41218;55.700;38.270;2023-08-31T17:52:09;99793.84;;;19.53;63.22
55347;BME280;41218;55.700;38.270;2023-08-31T17:57:09;99791.69;;;19.41;63.26
55347;BME280;41218;55.700;38.270;2023-08-31T18:02:11;99789.38;;;19.36;63.76
55347;BME280;41218;55.700;38.270;2023-08-31T18:07:11;99798.34;;;19.27;63.62
55347;BME280;41218;55.700;38.270;2023-08-31T18:12:11;99798.91;;;19.18;63.65
55347;BME280;41218;55.700;38.270;2023-08-31T18:17:12;99797.81;;;19.12;63.87
55347;BME280;41218;55.700;38.270;2023-08-31T18:22:13;99798.72;;;19.06;63.80
55347;BME280;41218;55.700;38.270;2023-08-31T18:27:14;99800.97;;;18.91;63.94
55347;BME280;41218;55.700;38.270;2023-08-31T18:32:14;99803.06;;;18.87;63.93
55347;BME280;41218;55.700;38.270;2023-08-31T18:37:15;99796.38;;;18.77;64.13
55347;BME280;41218;55.700;38.270;2023-08-31T18:42:15;99800.88;;;18.71;64.41
55347;BME280;41218;55.700;38.270;2023-08-31T18:47:17;99818.44;;;18.71;64.20
55347;BME280;41218;55.700;38.270;2023-08-31T18:52:18;99801.47;;;18.58;64.43
55347;BME280;41218;55.700;38.270;2023-08-31T18:57:18;99804.38;;;18.51;64.59
55347;BME280;41218;55.700;38.270;2023-08-31T19:02:19;99818.06;;;18.46;64.80
55347;BME280;41218;55.700;38.270;2023-08-31T19:07:23;99811.41;;;18.36;64.56
55347;BME280;41218;55.700;38.270;2023-08-31T19:12:23;99807.44;;;18.33;64.85
55347;BME280;41218;55.700;38.270;2023-08-31T19:17:24;99813.03;;;18.33;64.90
55347;BME280;41218;55.700;38.270;2023-08-31T19:22:24;99812.34;;;18.26;64.93
55347;BME280;41218;55.700;38.270;2023-08-31T19:27:25;99819.22;;;18.21;65.00
55347;BME280;41218;55.700;38.270;2023-08-31T19:32:26;99824.06;;;18.17;65.24
55347;BME280;41218;55.700;38.270;2023-08-31T19:37:32;99823.72;;;18.11;65.29
55347;BME280;41218;55.700;38.270;2023-08-31T19:42:33;99815.53;;;17.97;65.21
55347;BME280;41218;55.700;38.270;2023-08-31T19:47:34;99833.06;;;18.01;65.44
55347;BME280;41218;55.700;38.270;2023-08-31T19:52:35;99831.94;;;17.95;65.43
55347;BME280;41218;55.700;38.270;2023-08-31T19:57:35;99837.00;;;18.04;65.29
55347;BME280;41218;55.700;38.270;2023-08-31T20:02:36;99839.19;;;17.89;65.36
55347;BME280;41218;55.700;38.270;2023-08-31T20:07:36;99828.94;;;17.75;65.62
55347;BME280;41218;55.700;38.270;2023-08-31T20:12:37;99840.16;;;17.71;65.51
55347;BME280;41218;55.700;38.270;2023-08-31T20:17:38;99849.63;;;17.85;65.45
55347;BME280;41218;55.700;38.270;2023-08-31T20:22:39;99845.41;;;17.66;65.50
55347;BME280;41218;55.700;38.270;2023-08-31T20:27:40;99849.41;;;17.65;65.62
55347;BME280;41218;55.700;38.270;2023-08-31T20:32:40;99851.34;;;17.71;65.65
55347;BME280;41218;55.700;38.270;2023-08-31T20:37:41;99862.25;;;17.58;65.82
55347;BME280;41218;55.700;38.270;2023-08-31T20:42:41;99866.22;;;17.61;65.61
55347;BME280;41218;55.700;38.270;2023-08-31T20:47:42;99851.63;;;17.42;65.52
55347;BME280;41218;55.700;38.270;2023-08-31T20:52:44;99855.69;;;17.38;65.99
55347;BME280;41218;55.700;38.270;2023-08-31T20:57:45;99866.75;;;17.49;65.71
55347;BME280;41218;55.700;38.270;2023-08-31T21:02:45;99858.91;;;17.33;65.84
55347;BME280;41218;55.700;38.270;2023-08-31T21:07:46;99864.84;;;17.38;66.06
55347;BME280;41218;55.700;38.270;2023-08-31T21:12:46;99855.06;;;17.19;66.18
55347;BME280;41218;55.700;38.270;2023-08-31T21:17:46;99866.50;;;17.32;66.09
55347;BME280;41218;55.700;38.270;2023-08-31T21:22:47;99863.84;;;17.18;66.11
55347;BME280;41218;55.700;38.270;2023-08-31T21:27:47;99873.72;;;17.30;66.16
55347;BME280;41218;55.700;38.270;2023-08-31T21:32:48;99863.47;;;17.12;66.35
55347;BME280;41218;55.700;38.270;2023-08-31T21:37:48;99883.69;;;17.27;66.29
55347;BME280;41218;55.700;38.270;2023-08-31T21:42:49;99879.44;;;17.15;66.09
55347;BME280;41218;55.700;38.270;2023-08-31T21:47:50;99878.94;;;17.24;66.45
55347;BME280;41218;55.700;38.270;2023-08-31T21:52:51;99863.13;;;17.07;66.49
55347;BME280;41218;55.700;38.270;2023-08-31T21:57:51;99871.47;;;17.10;66.37
55347;BME280;41218;55.700;38.270;2023-08-31T22:02:52;99867.81;;;17.20;66.39
55347;BME280;41218;55.700;38.270;2023-08-31T22:07:54;99866.66;;;17.14;66.59
55347;BME280;41218;55.700;38.270;2023-08-31T22:12:56;99855.97;;;17.06;66.69
55347;BME280;41218;55.700;38.270;2023-08-31T22:17:57;99867.53;;;17.08;66.61
55347;BME280;41218;55.700;38.270;2023-08-31T22:22:58;99865.03;;;17.17;66.72
55347;BME280;41218;55.700;38.270;2023-08-31T22:27:59;99874.59;;;17.19;66.67
55347;BME280;41218;55.700;38.270;2023-08-31T22:32:59;99872.25;;;17.11;66.72
55347;BME280;41218;55.700;38.270;2023-08-31T22:38:00;99879.00;;;17.17;66.78
55347;BME280;41218;55.700;38.270;2023-08-31T22:43:03;99869.53;;;17.04;66.97
55347;BME280;41218;55.700;38.270;2023-08-31T22:48:05;99864.78;;;17.00;67.02
55347;BME280;41218;55.700;38.270;2023-08-31T22:53:06;99871.94;;;17.01;67.19
55347;BME280;41218;55.700;38.270;2023-08-31T22:58:07;99868.28;;;17.12;66.92
55347;BME280;41218;55.700;38.270;2023-08-31T23:03:07;99858.81;;;16.98;67.05
55347;BME280;41218;55.700;38.270;2023-08-31T23:08:10;99861.22;;;16.93;66.92
55347;BME280;41218;55.700;38.270;2023-08-31T23:13:10;99873.88;;;17.08;67.02
55347;BME280;41218;55.700;38.270;2023-08-31T23:18:11;99849.69;;;16.91;66.72
55347;BME280;41218;55.700;38.270;2023-08-31T23:23:11;99860.72;;;17.05;66.91
55347;BME280;41218;55.700;38.270;2023-08-31T23:28:12;99843.75;;;16.85;66.96
55347;BME280;41218;55.700;38.270;2023-08-31T23:33:12;99862.38;;;16.99;66.72
55347;BME280;41218;55.700;38.270;2023-08-31T23:38:14;99859.28;;;16.86;67.06
55347;BME280;41218;55.700;38.270;2023-08-31T23:43:14;99858.81;;;16.95;66.85
55347;BME280;41218;55.700;38.270;2023-08-31T23:48:14;99845.34;;;16.82;67.02
55347;BME280;41218;55.700;38.270;2023-08-31T23:53:15;99856.09;;;16.91;66.81
55347;BME280;41218;55.700;38.270;2023-08-31T23:58:15;99842.59;;;16.75;66.78
